Time;durP1;ratioP1;P1;durP2;ratioP2;P2;SDS_P1;SDS_P2;PMS_P1;PMS_P2;Temp;Humidity;BMP_temperature;BMP_pressure;BME280_temperature;BME280_humidity;BME280_pressure;Samples;Min_cycle;Max_cycle;Signal;HPM_P1;HPM_P2
2024/01/23 00:00:21;;;;;;;6.10;1.97;;;7.10;36.40;;;;;;5026826;28;20470;-70
2024/01/23 00:02:47;;;;;;;6.17;2.00;;;7.10;36.60;;;;;;5028467;28;20466;-70
2024/01/23 00:05:14;;;;;;;5.60;2.27;;;7.10;36.70;;;;;;5027047;28;20466;-70
2024/01/23 00:07:41;;;;;;;5.50;1.83;;;7.00;36.80;;;;;;5029234;28;20975;-69
2024/01/23 00:10:08;;;;;;;7.70;1.97;;;7.00;37.00;;;;;;5025267;28;20463;-70
2024/01/23 00:12:35;;;;;;;5.17;2.23;;;7.00;37.10;;;;;;5027222;28;20470;-70
2024/01/23 00:15:03;;;;;;;4.97;1.87;;;7.00;37.10;;;;;;5022461;28;20472;-69
2024/01/23 00:17:30;;;;;;;6.13;1.87;;;7.00;37.10;;;;;;5027712;28;20487;-70
2024/01/23 00:19:57;;;;;;;5.53;2.23;;;7.00;37.10;;;;;;5027657;28;20462;-70
2024/01/23 00:22:24;;;;;;;5.20;1.90;;;7.00;37.20;;;;;;5025304;28;20462;-70
2024/01/23 00:24:50;;;;;;;4.67;1.80;;;7.00;37.30;;;;;;5020948;28;20455;-70
2024/01/23 00:27:17;;;;;;;5.40;2.10;;;6.90;37.30;;;;;;5023875;28;20483;-70
2024/01/23 00:29:44;;;;;;;4.23;2.00;;;6.90;37.30;;;;;;5022075;28;20485;-70
2024/01/23 00:32:12;;;;;;;5.13;1.80;;;6.80;37.20;;;;;;5025532;28;20482;-70
2024/01/23 00:34:39;;;;;;;6.83;2.43;;;6.70;37.10;;;;;;5026234;28;20455;-70
2024/01/23 00:37:05;;;;;;;5.73;1.67;;;6.70;37.10;;;;;;5027003;28;21044;-70
2024/01/23 00:39:32;;;;;;;5.60;1.97;;;6.70;36.90;;;;;;5028657;28;20470;-70
2024/01/23 00:41:59;;;;;;;5.40;1.80;;;6.60;36.80;;;;;;5024396;28;20467;-70
2024/01/23 00:44:25;;;;;;;5.33;1.70;;;6.60;36.60;;;;;;5025431;28;20466;-70
2024/01/23 00:46:52;;;;;;;5.63;2.10;;;6.60;36.50;;;;;;5025071;28;20479;-70
2024/01/23 00:49:20;;;;;;;8.40;2.20;;;6.50;36.40;;;;;;5022232;28;20454;-70
2024/01/23 00:51:47;;;;;;;5.50;2.20;;;6.40;36.30;;;;;;5025577;28;20463;-70
2024/01/23 00:54:14;;;;;;;5.43;2.47;;;6.40;36.30;;;;;;5023616;28;20471;-70
2024/01/23 00:56:41;;;;;;;5.00;1.90;;;6.40;36.20;;;;;;5021132;28;20483;-70
2024/01/23 00:59:09;;;;;;;6.47;2.20;;;6.30;36.20;;;;;;5023810;28;20462;-70
2024/01/23 01:01:36;;;;;;;6.60;2.27;;;6.30;36.10;;;;;;5027221;28;20490;-70
2024/01/23 01:04:03;;;;;;;9.20;2.13;;;6.30;36.10;;;;;;5023165;28;20505;-70
2024/01/23 01:06:31;;;;;;;5.07;2.00;;;6.30;36.00;;;;;;5022750;28;20463;-70
2024/01/23 01:08:59;;;;;;;8.77;2.60;;;6.20;36.00;;;;;;5023129;28;20804;-70
2024/01/23 01:11:26;;;;;;;5.10;2.10;;;6.10;36.00;;;;;;5021664;28;20466;-70
2024/01/23 01:13:52;;;;;;;6.33;1.93;;;6.10;35.90;;;;;;5025315;28;20486;-70
2024/01/23 01:16:19;;;;;;;6.90;2.20;;;6.10;35.80;;;;;;5023396;28;20464;-70
2024/01/23 01:18:46;;;;;;;4.87;1.63;;;6.00;35.60;;;;;;5025011;28;20467;-69
2024/01/23 01:21:13;;;;;;;4.47;1.33;;;6.00;35.50;;;;;;5027849;28;20833;-69
2024/01/23 01:23:41;;;;;;;8.20;1.40;;;6.00;35.10;;;;;;5023853;28;20465;-70
2024/01/23 01:26:07;;;;;;;6.33;1.33;;;6.00;34.80;;;;;;5022329;28;20489;-70
2024/01/23 01:28:34;;;;;;;4.90;1.13;;;6.00;34.70;;;;;;5021305;28;20478;-70
2024/01/23 01:31:01;;;;;;;3.73;1.07;;;6.00;34.60;;;;;;5019633;28;20888;-70
2024/01/23 01:33:27;;;;;;;4.30;1.43;;;6.00;34.60;;;;;;5024904;28;20451;-70
2024/01/23 01:35:54;;;;;;;8.80;2.40;;;6.10;34.90;;;;;;5025855;28;20459;-70
2024/01/23 01:38:21;;;;;;;5.17;1.47;;;6.10;35.10;;;;;;5018852;28;20552;-70
2024/01/23 01:40:49;;;;;;;8.10;1.93;;;6.10;35.40;;;;;;5024965;28;20490;-70
2024/01/23 01:43:23;;;;;;;6.13;1.23;;;6.10;35.50;;;;;;5023978;28;21006;-70
2024/01/23 01:46:09;;;;;;;11.07;1.97;;;6.10;35.60;;;;;;5026330;28;20871;-69
2024/01/23 01:48:35;;;;;;;4.90;1.30;;;6.10;35.70;;;;;;5023666;28;20466;-69
2024/01/23 01:51:02;;;;;;;6.10;1.27;;;6.10;35.50;;;;;;5020963;28;20837;-70
2024/01/23 01:53:29;;;;;;;7.13;1.57;;;6.20;35.40;;;;;;5025547;28;20846;-70
2024/01/23 01:55:57;;;;;;;7.47;1.43;;;6.20;35.40;;;;;;5026551;28;20454;-70
2024/01/23 01:58:25;;;;;;;4.50;1.07;;;6.20;35.20;;;;;;5019904;28;20475;-70
2024/01/23 02:00:53;;;;;;;5.27;1.00;;;6.20;35.00;;;;;;5023745;28;20494;-70
2024/01/23 02:03:21;;;;;;;8.03;1.53;;;6.20;34.80;;;;;;5025134;28;20477;-70
2024/01/23 02:05:48;;;;;;;8.80;1.30;;;6.20;34.60;;;;;;5020551;28;20467;-69
2024/01/23 02:08:16;;;;;;;5.20;1.80;;;6.30;34.60;;;;;;5021870;28;20474;-70
2024/01/23 02:10:43;;;;;;;6.03;1.80;;;6.30;34.40;;;;;;5020744;28;20467;-70
2024/01/23 02:13:11;;;;;;;4.47;1.33;;;6.30;34.30;;;;;;5020014;28;20459;-70
2024/01/23 02:15:38;;;;;;;7.40;1.00;;;6.30;33.90;;;;;;5022406;28;20456;-70
2024/01/23 02:18:05;;;;;;;9.43;2.07;;;6.30;33.70;;;;;;5024462;28;21010;-70
2024/01/23 02:20:32;;;;;;;9.70;1.67;;;6.30;33.90;;;;;;5026169;28;20640;-70
2024/01/23 02:22:59;;;;;;;4.07;1.07;;;6.30;33.60;;;;;;5024656;28;20968;-70
2024/01/23 02:25:27;;;;;;;5.03;1.37;;;6.30;33.40;;;;;;5025159;28;20463;-70
2024/01/23 02:27:53;;;;;;;4.97;1.10;;;6.40;33.40;;;;;;5025603;28;20501;-70
2024/01/23 02:30:20;;;;;;;5.20;1.27;;;6.40;33.30;;;;;;5023254;28;20545;-70
2024/01/23 02:32:47;;;;;;;4.47;1.03;;;6.40;33.20;;;;;;5026011;28;20792;-70
2024/01/23 02:35:14;;;;;;;3.63;1.00;;;6.40;33.20;;;;;;5025426;28;20469;-70
2024/01/23 02:37:41;;;;;;;3.57;0.93;;;6.30;33.00;;;;;;5022454;28;20493;-70
2024/01/23 02:40:09;;;;;;;4.97;0.97;;;6.20;33.10;;;;;;5017320;28;20467;-70
2024/01/23 02:42:37;;;;;;;4.23;1.07;;;6.20;33.30;;;;;;5023876;28;20462;-70
2024/01/23 02:45:04;;;;;;;4.40;1.07;;;6.20;33.30;;;;;;5028678;28;20478;-70
2024/01/23 02:47:30;;;;;;;6.47;1.17;;;6.10;33.30;;;;;;5026960;28;20517;-70
2024/01/23 02:49:57;;;;;;;9.03;1.53;;;6.10;33.40;;;;;;5029711;28;20954;-69
2024/01/23 02:52:25;;;;;;;6.97;1.13;;;6.10;33.30;;;;;;5025475;28;20458;-70
2024/01/23 02:54:51;;;;;;;5.80;1.50;;;6.10;33.50;;;;;;5026223;28;21007;-70
2024/01/23 02:57:18;;;;;;;5.47;1.10;;;6.10;33.40;;;;;;5027454;28;20487;-70
2024/01/23 02:59:46;;;;;;;7.10;1.07;;;6.00;33.40;;;;;;5029229;28;20477;-70
2024/01/23 03:02:13;;;;;;;7.60;1.17;;;6.00;33.20;;;;;;5028886;28;20478;-70
2024/01/23 03:04:40;;;;;;;4.17;1.20;;;6.00;33.20;;;;;;5026130;28;20463;-70
2024/01/23 03:07:07;;;;;;;5.83;1.53;;;6.00;33.30;;;;;;5026524;28;20483;-70
2024/01/23 03:09:34;;;;;;;4.27;1.47;;;5.90;33.30;;;;;;5028419;28;20486;-70
2024/01/23 03:12:03;;;;;;;3.60;1.00;;;5.90;33.20;;;;;;5026680;28;20880;-70
2024/01/23 03:14:30;;;;;;;8.43;1.70;;;5.90;33.20;;;;;;5029285;28;20458;-70
2024/01/23 03:16:58;;;;;;;9.63;1.40;;;5.90;33.30;;;;;;5026430;28;20478;-70
2024/01/23 03:19:25;;;;;;;5.43;1.50;;;5.90;33.50;;;;;;5021002;28;20948;-70
2024/01/23 03:21:51;;;;;;;5.23;1.63;;;6.00;33.40;;;;;;5027688;28;20700;-70
2024/01/23 03:24:18;;;;;;;7.53;1.87;;;6.10;33.60;;;;;;5023769;28;20943;-70
2024/01/23 03:26:45;;;;;;;8.73;1.60;;;6.10;33.60;;;;;;5026968;28;20478;-70
2024/01/23 03:29:11;;;;;;;5.13;1.27;;;6.10;33.60;;;;;;5027699;28;20458;-70
2024/01/23 03:31:38;;;;;;;6.63;1.33;;;6.10;33.50;;;;;;5027876;28;20481;-70
2024/01/23 03:34:06;;;;;;;6.03;1.30;;;6.00;33.50;;;;;;5029116;28;20458;-70
2024/01/23 03:36:33;;;;;;;4.87;1.67;;;6.00;33.40;;;;;;5027908;28;21199;-70
2024/01/23 03:39:00;;;;;;;6.03;1.40;;;6.00;33.50;;;;;;5029491;28;20497;-70
2024/01/23 03:41:26;;;;;;;5.90;1.40;;;6.00;33.50;;;;;;5024599;28;20467;-70
2024/01/23 03:43:53;;;;;;;6.20;1.60;;;6.00;33.50;;;;;;5026997;28;20459;-70
2024/01/23 03:46:20;;;;;;;5.80;1.73;;;6.00;33.40;;;;;;5030019;28;20455;-70
2024/01/23 03:48:46;;;;;;;7.03;2.60;;;6.00;33.40;;;;;;5027125;28;20470;-70
2024/01/23 03:51:15;;;;;;;4.20;1.17;;;6.00;33.30;;;;;;5026938;28;20457;-70
2024/01/23 03:53:41;;;;;;;7.43;1.50;;;6.00;33.60;;;;;;5021768;28;20504;-70
2024/01/23 03:56:08;;;;;;;4.13;1.30;;;6.00;33.50;;;;;;5027688;28;20466;-70
2024/01/23 03:58:35;;;;;;;9.03;2.00;;;6.00;33.50;;;;;;5026344;28;20483;-70
2024/01/23 04:01:02;;;;;;;6.80;1.30;;;6.00;33.40;;;;;;5028107;28;20478;-70
2024/01/23 04:03:28;;;;;;;5.23;1.10;;;6.00;33.30;;;;;;5026843;28;20478;-70
2024/01/23 04:05:56;;;;;;;7.37;1.37;;;6.00;33.20;;;;;;5026752;28;20474;-70
2024/01/23 04:08:24;;;;;;;7.10;2.07;;;6.00;33.00;;;;;;5027564;28;20956;-70
2024/01/23 04:10:50;;;;;;;5.50;1.43;;;6.10;32.80;;;;;;5026363;28;20463;-70
2024/01/23 04:13:17;;;;;;;5.70;1.50;;;6.00;32.60;;;;;;5026671;28;20470;-70
2024/01/23 04:15:44;;;;;;;7.90;1.43;;;6.00;32.60;;;;;;5027142;28;20554;-70
2024/01/23 04:18:11;;;;;;;4.70;1.13;;;6.00;32.50;;;;;;5025735;28;20490;-70
2024/01/23 04:20:37;;;;;;;5.07;1.63;;;5.90;32.60;;;;;;5025313;28;20482;-70
2024/01/23 04:23:04;;;;;;;8.07;1.67;;;5.90;32.70;;;;;;5027643;28;20470;-70
2024/01/23 04:25:32;;;;;;;7.73;2.23;;;5.90;32.80;;;;;;5020900;28;20539;-70
2024/01/23 04:27:59;;;;;;;6.07;2.30;;;5.80;32.70;;;;;;5026103;28;20482;-70
2024/01/23 04:30:26;;;;;;;7.70;1.77;;;5.80;32.80;;;;;;5024963;28;20481;-70
2024/01/23 04:32:53;;;;;;;9.80;1.80;;;5.80;32.80;;;;;;5026135;28;20470;-72
2024/01/23 04:35:20;;;;;;;7.37;1.63;;;5.80;33.20;;;;;;5027000;28;20985;-70
2024/01/23 04:37:47;;;;;;;5.80;2.00;;;5.80;33.30;;;;;;5024306;28;20482;-70
2024/01/23 04:40:14;;;;;;;5.77;1.47;;;5.90;32.90;;;;;;5026970;28;20462;-70
2024/01/23 04:42:42;;;;;;;5.07;1.17;;;5.90;32.90;;;;;;5025171;28;20463;-70
2024/01/23 04:45:09;;;;;;;8.80;1.37;;;5.90;32.70;;;;;;5022986;28;21179;-70
2024/01/23 04:47:36;;;;;;;6.27;1.03;;;5.90;32.60;;;;;;5025378;28;20479;-70
2024/01/23 04:50:02;;;;;;;4.90;1.60;;;5.80;32.40;;;;;;5023573;28;20467;-70
2024/01/23 04:52:29;;;;;;;9.00;1.53;;;5.80;32.00;;;;;;5024424;28;20470;-70
2024/01/23 04:54:56;;;;;;;5.70;1.30;;;5.80;31.90;;;;;;5025684;28;20994;-72
2024/01/23 04:57:24;;;;;;;5.80;1.30;;;5.80;31.70;;;;;;5021219;28;20487;-70
2024/01/23 04:59:52;;;;;;;4.50;1.40;;;5.90;31.70;;;;;;5025078;28;20593;-70
2024/01/23 05:02:19;;;;;;;7.10;1.00;;;5.90;31.60;;;;;;5025966;28;20482;-70
2024/01/23 05:04:46;;;;;;;5.03;1.17;;;5.90;31.40;;;;;;5025389;28;20605;-70
2024/01/23 05:07:13;;;;;;;9.37;1.30;;;5.90;31.20;;;;;;5026518;28;21002;-70
2024/01/23 05:09:40;;;;;;;6.33;1.40;;;6.00;31.00;;;;;;5026550;28;20460;-70
2024/01/23 05:12:07;;;;;;;7.07;1.13;;;6.00;31.00;;;;;;5022217;28;20475;-70
2024/01/23 05:14:34;;;;;;;7.53;1.73;;;6.00;31.00;;;;;;5026046;28;20470;-70
2024/01/23 05:17:02;;;;;;;11.70;2.57;;;6.00;30.70;;;;;;5027207;28;21001;-70
2024/01/23 05:19:29;;;;;;;6.90;1.53;;;6.00;30.40;;;;;;5025499;28;20723;-70
2024/01/23 05:21:55;;;;;;;4.03;0.90;;;6.10;30.30;;;;;;5026491;28;20463;-70
2024/01/23 05:24:23;;;;;;;7.80;1.43;;;6.10;30.00;;;;;;5027294;28;20463;-70
2024/01/23 05:26:50;;;;;;;5.73;1.50;;;6.10;29.80;;;;;;5023128;28;20561;-70
2024/01/23 05:29:16;;;;;;;9.73;2.00;;;6.20;29.60;;;;;;5017780;28;20806;-70
2024/01/23 05:31:43;;;;;;;9.77;1.70;;;6.10;29.50;;;;;;5023549;28;21006;-70
2024/01/23 05:34:11;;;;;;;9.77;1.80;;;6.10;29.60;;;;;;5027406;28;20467;-71
2024/01/23 05:36:38;;;;;;;7.37;1.90;;;6.10;29.30;;;;;;5023159;28;20483;-70
2024/01/23 05:39:05;;;;;;;10.23;1.93;;;6.10;29.30;;;;;;5025541;28;20501;-70
2024/01/23 05:41:31;;;;;;;5.00;1.43;;;6.10;29.40;;;;;;5022000;28;20966;-69
2024/01/23 05:43:58;;;;;;;11.73;1.70;;;6.10;29.30;;;;;;5021619;28;20455;-68
2024/01/23 05:46:25;;;;;;;7.50;1.57;;;6.10;29.20;;;;;;5024248;28;20470;-68
2024/01/23 05:48:51;;;;;;;8.97;2.00;;;6.10;29.20;;;;;;5027364;28;20543;-68
2024/01/23 05:51:19;;;;;;;7.10;1.60;;;6.10;28.90;;;;;;5026712;28;20470;-68
2024/01/23 05:53:46;;;;;;;9.07;2.17;;;6.10;28.70;;;;;;5021755;28;20470;-68
2024/01/23 05:56:13;;;;;;;7.37;1.57;;;6.10;28.70;;;;;;5021978;28;20957;-68
2024/01/23 05:58:42;;;;;;;8.27;1.60;;;6.10;28.40;;;;;;5020655;28;20487;-68
2024/01/23 06:01:09;;;;;;;8.27;2.00;;;6.20;28.30;;;;;;5027241;28;20481;-68
2024/01/23 06:03:36;;;;;;;9.53;1.70;;;6.20;27.80;;;;;;5017150;28;20889;-67
2024/01/23 06:06:03;;;;;;;9.57;2.10;;;6.20;27.70;;;;;;5023751;28;20455;-69
2024/01/23 06:08:31;;;;;;;8.00;1.70;;;6.20;27.50;;;;;;5018213;28;20471;-69
2024/01/23 06:10:58;;;;;;;15.27;2.27;;;6.20;27.40;;;;;;5021201;28;20463;-68
2024/01/23 06:13:25;;;;;;;6.07;1.40;;;6.20;27.10;;;;;;5024298;28;20494;-68
2024/01/23 06:15:51;;;;;;;10.10;2.63;;;6.30;27.00;;;;;;5027258;28;20455;-68
2024/01/23 06:18:18;;;;;;;13.77;1.93;;;6.30;27.10;;;;;;5014112;28;20491;-68
2024/01/23 06:20:45;;;;;;;5.70;1.63;;;6.30;27.20;;;;;;5024510;28;20462;-68
2024/01/23 06:23:12;;;;;;;8.60;2.57;;;6.30;27.20;;;;;;5023499;28;20459;-68
2024/01/23 06:25:40;;;;;;;5.00;0.97;;;6.20;27.40;;;;;;5023431;28;20986;-68
2024/01/23 06:28:07;;;;;;;8.03;1.60;;;6.20;27.50;;;;;;5023681;28;20482;-68
2024/01/23 06:30:34;;;;;;;5.63;1.47;;;6.20;27.40;;;;;;5020557;28;20459;-68
2024/01/23 06:33:01;;;;;;;4.90;0.97;;;6.20;27.40;;;;;;5022091;28;20470;-68
2024/01/23 06:35:27;;;;;;;10.67;1.30;;;6.10;27.50;;;;;;5023047;28;20459;-68
2024/01/23 06:37:54;;;;;;;4.50;1.03;;;6.10;27.60;;;;;;5023859;28;20472;-68
2024/01/23 06:40:21;;;;;;;3.83;0.90;;;6.10;27.50;;;;;;5027509;28;20483;-68
2024/01/23 06:42:49;;;;;;;6.03;1.20;;;6.10;27.60;;;;;;5024248;28;20466;-68
2024/01/23 06:45:16;;;;;;;4.30;0.90;;;6.10;27.80;;;;;;5025975;28;20462;-68
2024/01/23 06:47:42;;;;;;;5.07;0.87;;;6.10;28.00;;;;;;5019504;28;20942;-73
2024/01/23 06:50:09;;;;;;;3.87;1.00;;;6.00;28.00;;;;;;5023704;28;20465;-69
2024/01/23 06:52:36;;;;;;;5.00;1.17;;;6.00;28.20;;;;;;5024848;28;20455;-69
2024/01/23 06:55:03;;;;;;;5.10;1.33;;;6.00;28.20;;;;;;5023921;28;20462;-69
2024/01/23 06:57:30;;;;;;;6.37;0.97;;;6.00;28.20;;;;;;5024039;28;20479;-69
2024/01/23 06:59:58;;;;;;;7.37;1.17;;;6.00;28.30;;;;;;5023501;28;20483;-69
2024/01/23 07:02:24;;;;;;;5.63;1.30;;;6.00;28.10;;;;;;5019332;28;20854;-69
2024/01/23 07:04:52;;;;;;;7.20;1.17;;;6.00;28.20;;;;;;5019564;28;21928;-69
2024/01/23 07:07:20;;;;;;;5.63;1.07;;;6.00;28.30;;;;;;5025736;28;20489;-69
2024/01/23 07:09:46;;;;;;;3.90;0.80;;;6.00;28.20;;;;;;5024520;28;20451;-69
2024/01/23 07:12:14;;;;;;;3.67;1.00;;;6.00;28.40;;;;;;5020502;28;20482;-69
2024/01/23 07:14:40;;;;;;;4.50;0.80;;;6.00;28.30;;;;;;5024598;28;20458;-69
2024/01/23 07:17:08;;;;;;;5.30;0.90;;;5.90;28.40;;;;;;5023061;28;20493;-69
2024/01/23 07:19:35;;;;;;;3.83;0.87;;;6.00;28.30;;;;;;5023494;28;20519;-69
2024/01/23 07:22:02;;;;;;;4.33;0.73;;;5.90;28.40;;;;;;5024686;28;20456;-69
2024/01/23 07:24:29;;;;;;;6.80;1.10;;;5.90;28.30;;;;;;5021215;28;20463;-69
2024/01/23 07:26:55;;;;;;;4.60;1.27;;;5.90;28.00;;;;;;5020443;28;20485;-69
2024/01/23 07:29:23;;;;;;;10.40;1.57;;;5.90;28.30;;;;;;5023026;28;20459;-69
2024/01/23 07:31:49;;;;;;;6.50;1.90;;;5.90;28.30;;;;;;5028675;28;20959;-69
2024/01/23 07:34:18;;;;;;;5.60;1.53;;;5.90;28.50;;;;;;5027702;28;20462;-69
2024/01/23 07:36:44;;;;;;;10.27;2.87;;;5.90;28.50;;;;;;5019767;28;20818;-68
2024/01/23 07:39:12;;;;;;;6.60;1.83;;;5.90;28.60;;;;;;5027286;28;20484;-69
2024/01/23 07:41:39;;;;;;;7.97;2.20;;;5.90;28.60;;;;;;5023806;28;20459;-69
2024/01/23 07:44:06;;;;;;;7.90;2.67;;;5.90;28.60;;;;;;5025200;28;20514;-69
2024/01/23 07:46:33;;;;;;;9.10;1.93;;;5.90;28.70;;;;;;5023015;28;20483;-68
2024/01/23 07:49:00;;;;;;;9.93;1.63;;;5.90;28.70;;;;;;5028698;28;20451;-68
2024/01/23 07:51:28;;;;;;;8.40;2.27;;;5.90;28.70;;;;;;5026210;28;20462;-68
2024/01/23 07:53:56;;;;;;;7.90;2.60;;;5.90;28.70;;;;;;5023919;28;20461;-68
2024/01/23 07:56:23;;;;;;;7.40;2.07;;;6.00;28.80;;;;;;5030062;28;20463;-69
2024/01/23 07:58:50;;;;;;;5.97;1.97;;;6.00;28.70;;;;;;5023677;28;20486;-68
2024/01/23 08:01:17;;;;;;;6.27;1.50;;;6.00;28.60;;;;;;5024005;28;20463;-68
2024/01/23 08:03:43;;;;;;;8.33;1.67;;;6.00;28.70;;;;;;5026913;28;20466;-68
2024/01/23 08:06:10;;;;;;;14.40;2.23;;;6.00;28.80;;;;;;5030251;28;20463;-68
2024/01/23 08:08:43;;;;;;;8.80;1.70;;;6.00;28.80;;;;;;5029447;28;20474;-68
2024/01/23 08:11:12;;;;;;;10.00;1.70;;;6.00;28.90;;;;;;5022948;28;20528;-68
2024/01/23 08:13:38;;;;;;;10.30;1.50;;;6.00;28.80;;;;;;5026554;28;20465;-68
2024/01/23 08:16:08;;;;;;;4.80;1.87;;;6.00;28.80;;;;;;5029446;28;20451;-68
2024/01/23 08:18:36;;;;;;;4.33;1.10;;;6.10;28.70;;;;;;5028141;28;20475;-68
2024/01/23 08:21:03;;;;;;;8.47;1.63;;;6.10;28.60;;;;;;5028475;28;20463;-68
2024/01/23 08:23:29;;;;;;;17.50;2.67;;;6.10;28.50;;;;;;5029528;28;20874;-68
2024/01/23 08:25:58;;;;;;;9.47;2.37;;;6.10;28.30;;;;;;5027523;28;20459;-68
2024/01/23 08:28:24;;;;;;;16.00;3.23;;;6.20;27.90;;;;;;5028154;28;20482;-68
2024/01/23 08:30:51;;;;;;;9.13;1.63;;;6.20;27.80;;;;;;5026315;28;20470;-68
2024/01/23 08:33:19;;;;;;;8.93;3.50;;;6.20;27.70;;;;;;5028991;28;20462;-68
2024/01/23 08:35:46;;;;;;;23.17;3.37;;;6.20;27.80;;;;;;5027292;28;20471;-68
2024/01/23 08:38:13;;;;;;;7.53;2.10;;;6.30;27.80;;;;;;5029468;28;20513;-68
2024/01/23 08:40:41;;;;;;;5.50;1.27;;;6.30;27.90;;;;;;5022207;28;20479;-68
2024/01/23 08:43:09;;;;;;;6.93;1.57;;;6.50;27.50;;;;;;5024372;28;20461;-68
2024/01/23 08:45:36;;;;;;;6.37;1.60;;;6.70;26.90;;;;;;5027872;28;20935;-68
2024/01/23 08:48:03;;;;;;;6.00;2.07;;;6.90;26.10;;;;;;5026682;28;20483;-68
2024/01/23 08:50:30;;;;;;;7.70;2.03;;;7.10;27.50;;;;;;5027335;28;20502;-68
2024/01/23 08:52:57;;;;;;;5.63;1.60;;;7.70;26.90;;;;;;5025844;28;20446;-68
2024/01/23 08:55:23;;;;;;;24.23;3.60;;;8.50;26.30;;;;;;5029378;28;20463;-68
2024/01/23 08:57:50;;;;;;;9.70;2.60;;;9.00;22.00;;;;;;5025842;28;20479;-68
2024/01/23 09:00:20;;;;;;;6.40;1.40;;;9.20;19.30;;;;;;5023686;28;20517;-68
2024/01/23 09:02:46;;;;;;;5.13;1.40;;;9.10;18.40;;;;;;5026211;28;20458;-69
2024/01/23 09:05:14;;;;;;;7.77;2.20;;;9.00;18.30;;;;;;5027886;28;20459;-69
2024/01/23 09:07:39;;;;;;;6.40;1.33;;;8.90;18.20;;;;;;5025928;28;20484;-68
2024/01/23 09:10:07;;;;;;;9.43;1.60;;;9.00;18.50;;;;;;5022712;28;20466;-68
2024/01/23 09:12:34;;;;;;;6.43;1.53;;;9.40;18.10;;;;;;5022128;28;20200;-68
2024/01/23 09:15:01;;;;;;;4.27;1.70;;;9.60;16.80;;;;;;5028375;28;20463;-68
2024/01/23 09:17:30;;;;;;;5.70;2.00;;;9.60;16.90;;;;;;5040997;22;20552;-69
2024/01/23 09:19:56;;;;;;;7.60;2.33;;;9.80;17.50;;;;;;5024493;28;20580;-69
2024/01/23 09:22:23;;;;;;;6.57;2.13;;;10.30;16.60;;;;;;5028109;28;20459;-70
2024/01/23 09:24:50;;;;;;;5.90;1.40;;;10.50;15.40;;;;;;5028470;28;20471;-69
2024/01/23 09:27:17;;;;;;;7.00;2.23;;;10.40;14.50;;;;;;5029418;28;20486;-69
2024/01/23 09:29:43;;;;;;;7.47;2.80;;;10.30;14.30;;;;;;5028591;28;20967;-71
2024/01/23 09:32:10;;;;;;;8.47;1.90;;;10.10;14.40;;;;;;5028800;28;20463;-70
2024/01/23 09:34:38;;;;;;;7.60;2.50;;;10.00;14.60;;;;;;5028412;28;20462;-70
2024/01/23 09:37:05;;;;;;;9.00;1.77;;;10.00;14.80;;;;;;5029344;28;20474;-69
2024/01/23 09:39:32;;;;;;;5.70;2.40;;;10.30;14.80;;;;;;5029013;28;20490;-69
2024/01/23 09:42:02;;;;;;;8.80;2.33;;;10.40;14.30;;;;;;5028434;28;20455;-70
2024/01/23 09:44:29;;;;;;;7.63;2.00;;;10.50;14.10;;;;;;5030620;28;20517;-69
2024/01/23 09:46:56;;;;;;;9.63;3.50;;;10.50;13.70;;;;;;5028175;28;20485;-69
2024/01/23 09:49:23;;;;;;;5.53;2.00;;;10.20;13.60;;;;;;5031460;28;20447;-69
2024/01/23 09:51:55;;;;;;;5.40;1.77;;;10.20;14.10;;;;;;5028165;28;20455;-69
2024/01/23 09:54:23;;;;;;;6.73;1.90;;;11.00;14.40;;;;;;5032754;28;20454;-70
2024/01/23 09:56:51;;;;;;;7.53;1.80;;;12.00;12.10;;;;;;5030106;28;20491;-69
2024/01/23 09:59:18;;;;;;;5.23;1.60;;;12.80;11.00;;;;;;5029847;28;20489;-69
2024/01/23 10:01:47;;;;;;;8.20;2.23;;;13.60;9.40;;;;;;5028630;28;20470;-70
2024/01/23 10:04:17;;;;;;;7.17;1.70;;;14.20;8.10;;;;;;5025839;28;20459;-69
2024/01/23 10:06:44;;;;;;;5.57;1.47;;;14.60;7.00;;;;;;5029847;28;20483;-69
2024/01/23 10:09:12;;;;;;;6.63;1.80;;;14.90;6.50;;;;;;5028364;28;20455;-69
2024/01/23 10:11:39;;;;;;;8.33;1.47;;;14.90;5.70;;;;;;5026496;28;20541;-69
2024/01/23 10:14:07;;;;;;;8.33;2.03;;;14.90;5.80;;;;;;5033647;28;20470;-70
2024/01/23 10:16:34;;;;;;;5.60;1.60;;;15.10;5.60;;;;;;5020708;28;20924;-70
2024/01/23 10:19:01;;;;;;;6.20;1.50;;;15.40;5.40;;;;;;5022977;28;21187;-70
2024/01/23 10:21:28;;;;;;;9.33;2.10;;;15.50;4.70;;;;;;5027600;28;21160;-69
2024/01/23 10:23:54;;;;;;;4.90;1.57;;;15.60;4.30;;;;;;5025677;28;20478;-68
2024/01/23 10:26:24;;;;;;;11.10;1.83;;;15.90;3.30;;;;;;5028197;28;20482;-69
2024/01/23 10:28:50;;;;;;;5.10;1.20;;;16.10;2.60;;;;;;5028134;28;20466;-69
2024/01/23 10:31:16;;;;;;;6.27;1.47;;;16.20;2.60;;;;;;5027713;28;20985;-69
2024/01/23 10:33:43;;;;;;;6.53;1.30;;;16.40;1.40;;;;;;5026925;28;20463;-69
2024/01/23 10:36:11;;;;;;;7.10;1.60;;;16.50;1.00;;;;;;5031501;28;20208;-69
2024/01/23 10:38:38;;;;;;;7.00;1.63;;;16.70;1.00;;;;;;5026723;28;20971;-69
2024/01/23 10:41:05;;;;;;;6.20;1.30;;;16.70;1.00;;;;;;5030168;28;20565;-69
2024/01/23 10:43:35;;;;;;;4.90;1.30;;;16.50;1.00;;;;;;5031634;28;20459;-69
2024/01/23 10:46:03;;;;;;;5.20;1.50;;;16.40;1.00;;;;;;5026944;28;21111;-69
2024/01/23 10:48:30;;;;;;;7.67;1.67;;;16.50;1.00;;;;;;5033681;28;20519;-69
2024/01/23 10:51:02;;;;;;;7.57;1.50;;;16.50;1.00;;;;;;5027770;28;20804;-69
2024/01/23 10:53:37;;;;;;;6.33;1.30;;;16.70;1.00;;;;;;5026516;28;21024;-69
2024/01/23 10:56:07;;;;;;;7.87;1.53;;;17.00;1.00;;;;;;5026607;28;20467;-69
2024/01/23 10:58:36;;;;;;;6.80;1.67;;;17.30;1.00;;;;;;5028302;28;20489;-69
2024/01/23 11:01:08;;;;;;;6.67;1.80;;;17.40;1.00;;;;;;5024286;28;20475;-70
2024/01/23 11:03:35;;;;;;;5.37;1.77;;;17.40;1.00;;;;;;5027699;28;20455;-69
2024/01/23 11:06:08;;;;;;;6.87;2.00;;;17.30;1.00;;;;;;5035822;28;20474;-71
2024/01/23 11:08:39;;;;;;;6.10;1.40;;;17.40;1.00;;;;;;5031060;28;20791;-69
2024/01/23 11:11:15;;;;;;;6.00;1.53;;;17.50;1.00;;;;;;5024538;28;20482;-69
2024/01/23 11:13:47;;;;;;;6.40;2.13;;;17.40;1.00;;;;;;5026835;28;20462;-69
2024/01/23 11:16:14;;;;;;;6.80;1.60;;;17.40;1.00;;;;;;5030057;28;20836;-69
2024/01/23 11:18:41;;;;;;;4.93;1.33;;;17.60;1.00;;;;;;5027899;28;20454;-69
2024/01/23 11:21:15;;;;;;;7.30;1.80;;;17.80;1.00;;;;;;5030184;28;20493;-69
2024/01/23 11:23:43;;;;;;;4.60;1.30;;;18.20;1.00;;;;;;5031527;28;21182;-68
2024/01/23 11:26:16;;;;;;;8.03;1.70;;;18.40;1.00;;;;;;5029352;28;20461;-69
2024/01/23 11:28:46;;;;;;;7.03;1.90;;;18.60;1.00;;;;;;5030894;28;20459;-69
2024/01/23 11:31:18;;;;;;;7.37;1.70;;;18.80;1.00;;;;;;5028968;28;20478;-69
2024/01/23 11:33:45;;;;;;;8.50;2.07;;;18.90;1.00;;;;;;5031302;28;20458;-69
2024/01/23 11:36:13;;;;;;;7.43;2.13;;;19.20;1.00;;;;;;5030747;28;20471;-69
2024/01/23 11:38:44;;;;;;;7.03;1.80;;;19.40;1.00;;;;;;5021194;28;20456;-69
2024/01/23 11:41:16;;;;;;;5.37;1.90;;;19.80;1.00;;;;;;5029655;28;20493;-69
2024/01/23 11:43:44;;;;;;;4.23;1.13;;;19.80;1.00;;;;;;5030726;28;20459;-69
2024/01/23 11:46:12;;;;;;;5.37;1.47;;;20.10;1.00;;;;;;5027938;28;20477;-69
2024/01/23 11:48:41;;;;;;;6.17;1.77;;;20.40;1.00;;;;;;5031195;28;20455;-69
2024/01/23 11:51:08;;;;;;;6.50;2.13;;;20.40;1.00;;;;;;5030705;28;20517;-69
2024/01/23 11:53:35;;;;;;;7.57;1.80;;;20.00;1.00;;;;;;5030844;28;21318;-69
2024/01/23 11:56:03;;;;;;;6.80;1.40;;;20.00;1.00;;;;;;5029184;28;20517;-69
2024/01/23 11:58:29;;;;;;;5.80;1.70;;;20.50;1.00;;;;;;5029661;28;20479;-69
2024/01/23 12:00:58;;;;;;;5.17;1.50;;;20.40;1.00;;;;;;5029333;28;20471;-69
2024/01/23 12:03:25;;;;;;;4.60;1.60;;;19.50;1.00;;;;;;5030528;28;20517;-69
2024/01/23 12:05:52;;;;;;;4.03;1.20;;;18.80;1.00;;;;;;5030217;28;20474;-69
2024/01/23 12:08:20;;;;;;;6.93;2.10;;;18.90;1.00;;;;;;5027948;28;20979;-69
2024/01/23 12:10:47;;;;;;;6.43;1.60;;;19.20;1.00;;;;;;5030058;28;20482;-69
2024/01/23 12:13:14;;;;;;;7.40;1.47;;;19.30;1.00;;;;;;5030203;28;20971;-69
2024/01/23 12:15:41;;;;;;;6.67;1.60;;;19.00;1.00;;;;;;5028964;28;20462;-69
2024/01/23 12:18:13;;;;;;;6.00;1.87;;;18.40;1.00;;;;;;5029615;28;20475;-70
2024/01/23 12:20:43;;;;;;;6.23;1.33;;;18.50;1.00;;;;;;5028582;28;20485;-69
2024/01/23 12:23:10;;;;;;;5.33;1.43;;;18.10;1.00;;;;;;5028026;28;20589;-68
2024/01/23 12:25:37;;;;;;;7.47;1.60;;;18.10;1.00;;;;;;5030108;28;20463;-69
2024/01/23 12:28:04;;;;;;;5.20;1.40;;;17.70;1.00;;;;;;5029294;28;20843;-70
2024/01/23 12:30:31;;;;;;;7.80;2.10;;;17.20;1.00;;;;;;5029832;28;20469;-69
2024/01/23 12:32:59;;;;;;;9.07;2.00;;;16.90;1.00;;;;;;5026102;28;20459;-70
2024/01/23 12:35:27;;;;;;;5.93;1.67;;;17.10;1.00;;;;;;5029732;28;20458;-69
2024/01/23 12:37:54;;;;;;;6.23;1.53;;;17.30;1.00;;;;;;5028911;28;20478;-69
2024/01/23 12:40:22;;;;;;;7.43;1.50;;;17.50;1.00;;;;;;5028932;28;22453;-68
2024/01/23 12:42:52;;;;;;;7.00;1.47;;;17.50;1.00;;;;;;5030026;28;20861;-70
2024/01/23 12:45:19;;;;;;;5.27;1.53;;;17.50;1.00;;;;;;5029137;28;20863;-69
2024/01/23 12:47:47;;;;;;;5.63;1.37;;;17.50;1.00;;;;;;5031881;28;20483;-69
2024/01/23 12:50:19;;;;;;;7.13;1.17;;;17.40;1.00;;;;;;5029627;28;20451;-69
2024/01/23 12:52:48;;;;;;;6.97;1.70;;;17.40;1.00;;;;;;5030198;28;20520;-70
2024/01/23 12:55:16;;;;;;;5.17;1.50;;;17.30;1.00;;;;;;5030144;28;20534;-70